sensor_id;sensor_type;location;lat;lon;timestamp;P1;durP1;ratioP1;P2;durP2;ratioP2
22064;SDS011;11197;53.110;8.468;2023-08-01T00:00:42;8.05;;;6.50;;
22064;SDS011;11197;53.110;8.468;2023-08-01T00:03:08;7.20;;;5.82;;
22064;SDS011;11197;53.110;8.468;2023-08-01T00:05:34;9.18;;;6.97;;
22064;SDS011;11197;53.110;8.468;2023-08-01T00:08:01;8.82;;;6.97;;
22064;SDS011;11197;53.110;8.468;2023-08-01T00:10:28;9.68;;;7.47;;
22064;SDS011;11197;53.110;8.468;2023-08-01T00:12:53;8.43;;;7.10;;
22064;SDS011;11197;53.110;8.468;2023-08-01T00:15:19;8.82;;;7.93;;
22064;SDS011;11197;53.110;8.468;2023-08-01T00:17:46;10.30;;;8.52;;
22064;SDS011;11197;53.110;8.468;2023-08-01T00:20:12;9.15;;;8.20;;
22064;SDS011;11197;53.110;8.468;2023-08-01T00:22:39;11.68;;;8.63;;
22064;SDS011;11197;53.110;8.468;2023-08-01T00:25:05;9.65;;;8.20;;
22064;SDS011;11197;53.110;8.468;2023-08-01T00:27:32;10.77;;;8.57;;
22064;SDS011;11197;53.110;8.468;2023-08-01T00:29:58;9.60;;;8.60;;
22064;SDS011;11197;53.110;8.468;2023-08-01T00:32:26;14.38;;;8.35;;
22064;SDS011;11197;53.110;8.468;2023-08-01T00:34:51;9.32;;;7.88;;
22064;SDS011;11197;53.110;8.468;2023-08-01T00:37:18;10.02;;;8.10;;
22064;SDS011;11197;53.110;8.468;2023-08-01T00:39:44;11.23;;;8.23;;
22064;SDS011;11197;53.110;8.468;2023-08-01T00:42:10;13.25;;;8.15;;
22064;SDS011;11197;53.110;8.468;2023-08-01T00:44:37;10.98;;;8.45;;
22064;SDS011;11197;53.110;8.468;2023-08-01T00:47:02;9.80;;;8.25;;
22064;SDS011;11197;53.110;8.468;2023-08-01T00:49:28;9.50;;;7.60;;
22064;SDS011;11197;53.110;8.468;2023-08-01T00:51:54;11.18;;;8.55;;
22064;SDS011;11197;53.110;8.468;2023-08-01T00:54:20;10.27;;;8.60;;
22064;SDS011;11197;53.110;8.468;2023-08-01T00:56:46;12.73;;;8.50;;
22064;SDS011;11197;53.110;8.468;2023-08-01T00:59:11;9.02;;;7.60;;
22064;SDS011;11197;53.110;8.468;2023-08-01T01:01:38;10.57;;;8.00;;
22064;SDS011;11197;53.110;8.468;2023-08-01T01:04:04;9.38;;;7.38;;
22064;SDS011;11197;53.110;8.468;2023-08-01T01:06:34;12.48;;;8.38;;
22064;SDS011;11197;53.110;8.468;2023-08-01T01:09:18;11.82;;;8.27;;
22064;SDS011;11197;53.110;8.468;2023-08-01T01:11:46;11.77;;;8.43;;
22064;SDS011;11197;53.110;8.468;2023-08-01T01:14:12;11.05;;;8.27;;
22064;SDS011;11197;53.110;8.468;2023-08-01T01:16:38;10.50;;;8.05;;
22064;SDS011;11197;53.110;8.468;2023-08-01T01:19:06;12.05;;;8.30;;
22064;SDS011;11197;53.110;8.468;2023-08-01T01:24:43;11.10;;;7.87;;
22064;SDS011;11197;53.110;8.468;2023-08-01T01:27:10;10.32;;;7.97;;
22064;SDS011;11197;53.110;8.468;2023-08-01T01:29:37;12.65;;;8.18;;
22064;SDS011;11197;53.110;8.468;2023-08-01T01:32:04;10.40;;;7.90;;
22064;SDS011;11197;53.110;8.468;2023-08-01T01:34:32;8.82;;;7.43;;
22064;SDS011;11197;53.110;8.468;2023-08-01T01:36:57;11.98;;;7.72;;
22064;SDS011;11197;53.110;8.468;2023-08-01T01:39:23;11.15;;;7.70;;
22064;SDS011;11197;53.110;8.468;2023-08-01T01:41:49;10.40;;;7.55;;
22064;SDS011;11197;53.110;8.468;2023-08-01T01:44:15;10.48;;;7.38;;
22064;SDS011;11197;53.110;8.468;2023-08-01T01:46:40;11.95;;;7.70;;
22064;SDS011;11197;53.110;8.468;2023-08-01T01:49:06;9.15;;;6.90;;
22064;SDS011;11197;53.110;8.468;2023-08-01T01:51:32;10.13;;;6.78;;
22064;SDS011;11197;53.110;8.468;2023-08-01T01:53:57;10.70;;;7.18;;
22064;SDS011;11197;53.110;8.468;2023-08-01T01:56:23;8.63;;;6.50;;
22064;SDS011;11197;53.110;8.468;2023-08-01T01:58:50;11.23;;;6.40;;
22064;SDS011;11197;53.110;8.468;2023-08-01T02:01:17;10.00;;;6.90;;
22064;SDS011;11197;53.110;8.468;2023-08-01T02:03:44;10.32;;;6.97;;
22064;SDS011;11197;53.110;8.468;2023-08-01T02:06:12;9.60;;;6.57;;
22064;SDS011;11197;53.110;8.468;2023-08-01T02:08:38;10.90;;;6.53;;
22064;SDS011;11197;53.110;8.468;2023-08-01T02:11:05;9.73;;;6.97;;
22064;SDS011;11197;53.110;8.468;2023-08-01T02:13:32;9.30;;;6.82;;
22064;SDS011;11197;53.110;8.468;2023-08-01T02:15:59;9.93;;;6.82;;
22064;SDS011;11197;53.110;8.468;2023-08-01T02:18:25;10.40;;;6.75;;
22064;SDS011;11197;53.110;8.468;2023-08-01T02:20:51;10.85;;;6.40;;
22064;SDS011;11197;53.110;8.468;2023-08-01T02:23:17;12.13;;;7.00;;
22064;SDS011;11197;53.110;8.468;2023-08-01T02:25:43;10.10;;;7.43;;
22064;SDS011;11197;53.110;8.468;2023-08-01T02:28:10;11.27;;;6.63;;
22064;SDS011;11197;53.110;8.468;2023-08-01T02:30:37;7.55;;;5.85;;
22064;SDS011;11197;53.110;8.468;2023-08-01T02:33:03;6.95;;;5.30;;
22064;SDS011;11197;53.110;8.468;2023-08-01T02:35:29;5.55;;;4.20;;
22064;SDS011;11197;53.110;8.468;2023-08-01T02:37:56;5.75;;;4.05;;
22064;SDS011;11197;53.110;8.468;2023-08-01T02:40:22;6.60;;;3.20;;
22064;SDS011;11197;53.110;8.468;2023-08-01T02:42:48;5.43;;;2.70;;
22064;SDS011;11197;53.110;8.468;2023-08-01T02:45:15;4.82;;;2.65;;
22064;SDS011;11197;53.110;8.468;2023-08-01T02:47:41;4.88;;;2.80;;
22064;SDS011;11197;53.110;8.468;2023-08-01T02:50:07;6.55;;;2.67;;
22064;SDS011;11197;53.110;8.468;2023-08-01T02:52:33;6.15;;;2.97;;
22064;SDS011;11197;53.110;8.468;2023-08-01T02:54:59;6.07;;;2.80;;
22064;SDS011;11197;53.110;8.468;2023-08-01T02:57:25;7.22;;;3.40;;
22064;SDS011;11197;53.110;8.468;2023-08-01T02:59:51;8.32;;;3.83;;
22064;SDS011;11197;53.110;8.468;2023-08-01T03:02:16;7.07;;;4.57;;
22064;SDS011;11197;53.110;8.468;2023-08-01T03:04:42;8.90;;;4.72;;
22064;SDS011;11197;53.110;8.468;2023-08-01T03:07:08;8.90;;;5.03;;
22064;SDS011;11197;53.110;8.468;2023-08-01T03:09:34;11.40;;;6.97;;
22064;SDS011;11197;53.110;8.468;2023-08-01T03:11:59;10.20;;;7.38;;
22064;SDS011;11197;53.110;8.468;2023-08-01T03:14:25;11.15;;;7.88;;
22064;SDS011;11197;53.110;8.468;2023-08-01T03:16:51;12.02;;;8.27;;
22064;SDS011;11197;53.110;8.468;2023-08-01T03:19:16;11.90;;;8.20;;
22064;SDS011;11197;53.110;8.468;2023-08-01T03:21:42;9.90;;;7.25;;
22064;SDS011;11197;53.110;8.468;2023-08-01T03:24:08;12.65;;;8.43;;
22064;SDS011;11197;53.110;8.468;2023-08-01T03:26:37;13.07;;;8.70;;
22064;SDS011;11197;53.110;8.468;2023-08-01T03:29:02;14.32;;;10.93;;
22064;SDS011;11197;53.110;8.468;2023-08-01T03:31:31;12.90;;;10.05;;
22064;SDS011;11197;53.110;8.468;2023-08-01T03:33:57;17.13;;;11.57;;
22064;SDS011;11197;53.110;8.468;2023-08-01T03:36:25;17.02;;;12.65;;
22064;SDS011;11197;53.110;8.468;2023-08-01T03:38:51;15.30;;;11.40;;
22064;SDS011;11197;53.110;8.468;2023-08-01T03:41:17;18.17;;;13.20;;
22064;SDS011;11197;53.110;8.468;2023-08-01T03:43:42;16.70;;;13.75;;
22064;SDS011;11197;53.110;8.468;2023-08-01T03:46:08;17.65;;;13.38;;
22064;SDS011;11197;53.110;8.468;2023-08-01T03:48:34;20.40;;;14.32;;
22064;SDS011;11197;53.110;8.468;2023-08-01T03:51:00;21.30;;;15.18;;
22064;SDS011;11197;53.110;8.468;2023-08-01T03:53:28;19.08;;;15.05;;
22064;SDS011;11197;53.110;8.468;2023-08-01T03:55:55;19.27;;;14.93;;
22064;SDS011;11197;53.110;8.468;2023-08-01T03:58:27;19.27;;;14.80;;
22064;SDS011;11197;53.110;8.468;2023-08-01T04:01:00;16.60;;;13.57;;
22064;SDS011;11197;53.110;8.468;2023-08-01T04:03:26;17.00;;;13.13;;
22064;SDS011;11197;53.110;8.468;2023-08-01T04:05:52;16.95;;;13.77;;
22064;SDS011;11197;53.110;8.468;2023-08-01T04:08:21;21.33;;;15.20;;
22064;SDS011;11197;53.110;8.468;2023-08-01T04:10:48;21.27;;;15.27;;
22064;SDS011;11197;53.110;8.468;2023-08-01T04:13:16;20.48;;;13.73;;
22064;SDS011;11197;53.110;8.468;2023-08-01T04:15:42;14.25;;;9.90;;
22064;SDS011;11197;53.110;8.468;2023-08-01T04:18:08;10.73;;;6.95;;
22064;SDS011;11197;53.110;8.468;2023-08-01T04:20:34;9.20;;;6.50;;
22064;SDS011;11197;53.110;8.468;2023-08-01T04:23:00;10.65;;;6.22;;
22064;SDS011;11197;53.110;8.468;2023-08-01T04:25:27;10.35;;;5.72;;
22064;SDS011;11197;53.110;8.468;2023-08-01T04:27:53;11.20;;;6.30;;
22064;SDS011;11197;53.110;8.468;2023-08-01T04:30:20;7.78;;;5.60;;
22064;SDS011;11197;53.110;8.468;2023-08-01T04:32:46;8.50;;;5.45;;
22064;SDS011;11197;53.110;8.468;2023-08-01T04:35:13;7.38;;;5.50;;
22064;SDS011;11197;53.110;8.468;2023-08-01T04:37:39;7.65;;;4.97;;
22064;SDS011;11197;53.110;8.468;2023-08-01T04:40:05;8.48;;;4.90;;
22064;SDS011;11197;53.110;8.468;2023-08-01T04:42:32;7.13;;;4.72;;
22064;SDS011;11197;53.110;8.468;2023-08-01T04:44:58;8.70;;;4.90;;
22064;SDS011;11197;53.110;8.468;2023-08-01T04:47:24;8.63;;;4.55;;
22064;SDS011;11197;53.110;8.468;2023-08-01T04:49:49;7.70;;;5.25;;
22064;SDS011;11197;53.110;8.468;2023-08-01T04:52:15;8.07;;;5.00;;
22064;SDS011;11197;53.110;8.468;2023-08-01T04:54:41;8.63;;;5.97;;
22064;SDS011;11197;53.110;8.468;2023-08-01T04:57:06;9.52;;;6.20;;
22064;SDS011;11197;53.110;8.468;2023-08-01T04:59:35;9.52;;;6.35;;
22064;SDS011;11197;53.110;8.468;2023-08-01T05:02:03;10.85;;;5.93;;
22064;SDS011;11197;53.110;8.468;2023-08-01T05:04:30;10.35;;;6.68;;
22064;SDS011;11197;53.110;8.468;2023-08-01T05:06:56;9.18;;;5.80;;
22064;SDS011;11197;53.110;8.468;2023-08-01T05:09:22;9.93;;;5.63;;
22064;SDS011;11197;53.110;8.468;2023-08-01T05:11:47;9.75;;;5.63;;
22064;SDS011;11197;53.110;8.468;2023-08-01T05:14:13;10.52;;;5.80;;
22064;SDS011;11197;53.110;8.468;2023-08-01T05:16:39;8.20;;;5.45;;
22064;SDS011;11197;53.110;8.468;2023-08-01T05:19:05;9.50;;;5.60;;
22064;SDS011;11197;53.110;8.468;2023-08-01T05:21:32;9.73;;;5.50;;
22064;SDS011;11197;53.110;8.468;2023-08-01T05:23:58;8.05;;;5.32;;
22064;SDS011;11197;53.110;8.468;2023-08-01T05:26:24;10.65;;;5.90;;
22064;SDS011;11197;53.110;8.468;2023-08-01T05:28:50;10.35;;;5.90;;
22064;SDS011;11197;53.110;8.468;2023-08-01T05:31:15;9.57;;;5.60;;
22064;SDS011;11197;53.110;8.468;2023-08-01T05:33:41;10.30;;;6.13;;
22064;SDS011;11197;53.110;8.468;2023-08-01T05:36:08;9.00;;;5.85;;
22064;SDS011;11197;53.110;8.468;2023-08-01T05:38:33;10.38;;;6.22;;
22064;SDS011;11197;53.110;8.468;2023-08-01T05:40:59;9.85;;;5.65;;
22064;SDS011;11197;53.110;8.468;2023-08-01T05:43:25;9.63;;;6.18;;
22064;SDS011;11197;53.110;8.468;2023-08-01T05:45:52;12.10;;;7.22;;
22064;SDS011;11197;53.110;8.468;2023-08-01T05:48:18;12.80;;;6.88;;
22064;SDS011;11197;53.110;8.468;2023-08-01T05:50:43;11.52;;;8.00;;
22064;SDS011;11197;53.110;8.468;2023-08-01T05:53:09;13.55;;;8.57;;
22064;SDS011;11197;53.110;8.468;2023-08-01T05:55:35;14.10;;;8.82;;
22064;SDS011;11197;53.110;8.468;2023-08-01T05:58:03;14.85;;;9.00;;
22064;SDS011;11197;53.110;8.468;2023-08-01T06:00:30;12.23;;;8.98;;
22064;SDS011;11197;53.110;8.468;2023-08-01T06:02:56;16.88;;;9.43;;
22064;SDS011;11197;53.110;8.468;2023-08-01T06:05:21;13.50;;;9.73;;
22064;SDS011;11197;53.110;8.468;2023-08-01T06:07:50;15.30;;;9.70;;
22064;SDS011;11197;53.110;8.468;2023-08-01T06:10:16;14.27;;;9.27;;
22064;SDS011;11197;53.110;8.468;2023-08-01T06:12:42;17.30;;;9.93;;
22064;SDS011;11197;53.110;8.468;2023-08-01T06:15:10;15.88;;;9.05;;
22064;SDS011;11197;53.110;8.468;2023-08-01T06:17:36;15.70;;;9.75;;
22064;SDS011;11197;53.110;8.468;2023-08-01T06:20:01;14.15;;;8.98;;
22064;SDS011;11197;53.110;8.468;2023-08-01T06:22:29;14.15;;;8.68;;
22064;SDS011;11197;53.110;8.468;2023-08-01T06:24:56;13.13;;;9.18;;
22064;SDS011;11197;53.110;8.468;2023-08-01T06:27:21;16.65;;;8.90;;
22064;SDS011;11197;53.110;8.468;2023-08-01T06:29:47;15.18;;;8.20;;
22064;SDS011;11197;53.110;8.468;2023-08-01T06:32:13;13.07;;;7.78;;
22064;SDS011;11197;53.110;8.468;2023-08-01T06:34:38;11.88;;;7.50;;
22064;SDS011;11197;53.110;8.468;2023-08-01T06:37:07;12.70;;;6.90;;
22064;SDS011;11197;53.110;8.468;2023-08-01T06:39:35;12.15;;;7.00;;
22064;SDS011;11197;53.110;8.468;2023-08-01T06:42:00;13.25;;;7.05;;
22064;SDS011;11197;53.110;8.468;2023-08-01T06:44:26;11.02;;;6.53;;
22064;SDS011;11197;53.110;8.468;2023-08-01T06:46:52;11.38;;;5.72;;
22064;SDS011;11197;53.110;8.468;2023-08-01T06:49:18;13.02;;;6.38;;
22064;SDS011;11197;53.110;8.468;2023-08-01T06:51:43;12.10;;;5.80;;
22064;SDS011;11197;53.110;8.468;2023-08-01T06:54:09;9.90;;;4.43;;
22064;SDS011;11197;53.110;8.468;2023-08-01T06:56:35;7.65;;;4.18;;
22064;SDS011;11197;53.110;8.468;2023-08-01T06:59:00;8.15;;;3.70;;
22064;SDS011;11197;53.110;8.468;2023-08-01T07:01:26;7.55;;;3.40;;
22064;SDS011;11197;53.110;8.468;2023-08-01T07:03:53;8.40;;;3.28;;
22064;SDS011;11197;53.110;8.468;2023-08-01T07:06:21;6.28;;;3.22;;
22064;SDS011;11197;53.110;8.468;2023-08-01T07:08:48;5.30;;;2.60;;
22064;SDS011;11197;53.110;8.468;2023-08-01T07:11:14;7.63;;;2.63;;
22064;SDS011;11197;53.110;8.468;2023-08-01T07:13:42;7.13;;;2.67;;
22064;SDS011;11197;53.110;8.468;2023-08-01T07:16:07;5.20;;;2.40;;
22064;SDS011;11197;53.110;8.468;2023-08-01T07:18:34;6.10;;;2.33;;
22064;SDS011;11197;53.110;8.468;2023-08-01T07:21:03;6.20;;;2.20;;
22064;SDS011;11197;53.110;8.468;2023-08-01T07:23:30;4.45;;;1.90;;
22064;SDS011;11197;53.110;8.468;2023-08-01T07:25:56;4.68;;;2.05;;
22064;SDS011;11197;53.110;8.468;2023-08-01T07:28:22;7.50;;;2.00;;
22064;SDS011;11197;53.110;8.468;2023-08-01T07:30:48;3.53;;;1.80;;
22064;SDS011;11197;53.110;8.468;2023-08-01T07:33:22;5.60;;;2.10;;
22064;SDS011;11197;53.110;8.468;2023-08-01T07:35:48;5.53;;;1.92;;
22064;SDS011;11197;53.110;8.468;2023-08-01T07:38:14;4.78;;;1.98;;
22064;SDS011;11197;53.110;8.468;2023-08-01T07:40:39;5.45;;;2.00;;
22064;SDS011;11197;53.110;8.468;2023-08-01T07:43:05;6.45;;;1.98;;
22064;SDS011;11197;53.110;8.468;2023-08-01T07:45:33;3.78;;;1.90;;
22064;SDS011;11197;53.110;8.468;2023-08-01T07:47:59;8.27;;;2.40;;
22064;SDS011;11197;53.110;8.468;2023-08-01T07:50:25;7.78;;;2.38;;
22064;SDS011;11197;53.110;8.468;2023-08-01T07:52:51;6.20;;;2.20;;
22064;SDS011;11197;53.110;8.468;2023-08-01T07:55:17;6.55;;;2.38;;
22064;SDS011;11197;53.110;8.468;2023-08-01T07:57:47;7.00;;;2.10;;
22064;SDS011;11197;53.110;8.468;2023-08-01T08:00:13;6.15;;;2.55;;
22064;SDS011;11197;53.110;8.468;2023-08-01T08:02:44;4.85;;;2.15;;
22064;SDS011;11197;53.110;8.468;2023-08-01T08:05:10;7.47;;;2.67;;
22064;SDS011;11197;53.110;8.468;2023-08-01T08:07:36;6.78;;;2.60;;
22064;SDS011;11197;53.110;8.468;2023-08-01T08:10:03;5.82;;;2.25;;
22064;SDS011;11197;53.110;8.468;2023-08-01T08:12:30;7.60;;;2.38;;
22064;SDS011;11197;53.110;8.468;2023-08-01T08:14:58;5.72;;;2.30;;
22064;SDS011;11197;53.110;8.468;2023-08-01T08:17:23;5.00;;;2.15;;
22064;SDS011;11197;53.110;8.468;2023-08-01T08:19:49;7.13;;;2.20;;
22064;SDS011;11197;53.110;8.468;2023-08-01T08:22:15;5.10;;;2.20;;
22064;SDS011;11197;53.110;8.468;2023-08-01T08:24:40;6.32;;;2.25;;
22064;SDS011;11197;53.110;8.468;2023-08-01T08:27:06;4.65;;;2.03;;
22064;SDS011;11197;53.110;8.468;2023-08-01T08:29:32;5.47;;;1.90;;
22064;SDS011;11197;53.110;8.468;2023-08-01T08:32:01;4.07;;;1.65;;
22064;SDS011;11197;53.110;8.468;2023-08-01T08:34:29;4.00;;;2.15;;
22064;SDS011;11197;53.110;8.468;2023-08-01T08:36:58;3.90;;;1.77;;
22064;SDS011;11197;53.110;8.468;2023-08-01T08:39:24;4.47;;;1.70;;
22064;SDS011;11197;53.110;8.468;2023-08-01T08:41:51;3.45;;;1.55;;
22064;SDS011;11197;53.110;8.468;2023-08-01T08:44:18;4.90;;;1.60;;
22064;SDS011;11197;53.110;8.468;2023-08-01T08:46:49;5.95;;;1.50;;
22064;SDS011;11197;53.110;8.468;2023-08-01T08:49:17;4.43;;;1.35;;
22064;SDS011;11197;53.110;8.468;2023-08-01T08:51:48;5.80;;;1.90;;
22064;SDS011;11197;53.110;8.468;2023-08-01T08:54:15;3.25;;;1.42;;
22064;SDS011;11197;53.110;8.468;2023-08-01T08:56:42;6.60;;;1.60;;
22064;SDS011;11197;53.110;8.468;2023-08-01T08:59:08;10.77;;;6.10;;
22064;SDS011;11197;53.110;8.468;2023-08-01T09:01:38;8.57;;;4.70;;
22064;SDS011;11197;53.110;8.468;2023-08-01T09:04:04;8.88;;;4.90;;
22064;SDS011;11197;53.110;8.468;2023-08-01T09:06:34;7.88;;;5.05;;
22064;SDS011;11197;53.110;8.468;2023-08-01T09:09:10;12.13;;;8.20;;
22064;SDS011;11197;53.110;8.468;2023-08-01T09:11:47;3.65;;;2.00;;
22064;SDS011;11197;53.110;8.468;2023-08-01T09:14:17;4.77;;;1.47;;
22064;SDS011;11197;53.110;8.468;2023-08-01T09:16:44;3.00;;;1.30;;
22064;SDS011;11197;53.110;8.468;2023-08-01T09:19:11;2.92;;;1.25;;
22064;SDS011;11197;53.110;8.468;2023-08-01T09:21:41;2.33;;;1.30;;
22064;SDS011;11197;53.110;8.468;2023-08-01T09:24:10;3.78;;;1.30;;
22064;SDS011;11197;53.110;8.468;2023-08-01T09:26:36;3.88;;;1.50;;
22064;SDS011;11197;53.110;8.468;2023-08-01T09:29:03;3.90;;;1.50;;
22064;SDS011;11197;53.110;8.468;2023-08-01T09:31:29;3.88;;;1.48;;
22064;SDS011;11197;53.110;8.468;2023-08-01T09:33:56;3.22;;;1.27;;
22064;SDS011;11197;53.110;8.468;2023-08-01T09:36:22;3.55;;;1.55;;
22064;SDS011;11197;53.110;8.468;2023-08-01T09:38:48;3.22;;;1.45;;
22064;SDS011;11197;53.110;8.468;2023-08-01T09:41:18;4.07;;;1.20;;
22064;SDS011;11197;53.110;8.468;2023-08-01T09:43:45;4.40;;;1.57;;
22064;SDS011;11197;53.110;8.468;2023-08-01T09:46:12;2.88;;;1.40;;
22064;SDS011;11197;53.110;8.468;2023-08-01T09:48:38;4.15;;;1.40;;
22064;SDS011;11197;53.110;8.468;2023-08-01T09:51:06;5.43;;;1.60;;
22064;SDS011;11197;53.110;8.468;2023-08-01T09:53:48;5.35;;;1.52;;
22064;SDS011;11197;53.110;8.468;2023-08-01T09:56:19;3.55;;;1.45;;
22064;SDS011;11197;53.110;8.468;2023-08-01T09:58:52;3.50;;;1.55;;
22064;SDS011;11197;53.110;8.468;2023-08-01T10:01:20;5.05;;;1.50;;
22064;SDS011;11197;53.110;8.468;2023-08-01T10:03:49;3.05;;;1.48;;
22064;SDS011;11197;53.110;8.468;2023-08-01T10:06:18;3.22;;;1.50;;
22064;SDS011;11197;53.110;8.468;2023-08-01T10:08:46;3.78;;;1.50;;
22064;SDS011;11197;53.110;8.468;2023-08-01T10:11:16;3.47;;;1.13;;
22064;SDS011;11197;53.110;8.468;2023-08-01T10:13:43;3.53;;;1.30;;
22064;SDS011;11197;53.110;8.468;2023-08-01T10:16:10;3.53;;;1.00;;
22064;SDS011;11197;53.110;8.468;2023-08-01T10:18:36;4.68;;;1.45;;
22064;SDS011;11197;53.110;8.468;2023-08-01T10:21:07;2.67;;;1.60;;
22064;SDS011;11197;53.110;8.468;2023-08-01T10:23:40;4.72;;;1.40;;
22064;SDS011;11197;53.110;8.468;2023-08-01T10:26:07;4.35;;;1.33;;
22064;SDS011;11197;53.110;8.468;2023-08-01T10:28:37;4.55;;;1.25;;
22064;SDS011;11197;53.110;8.468;2023-08-01T10:31:16;2.75;;;1.27;;
22064;SDS011;11197;53.110;8.468;2023-08-01T10:33:44;1.95;;;1.15;;
22064;SDS011;11197;53.110;8.468;2023-08-01T10:36:14;3.75;;;1.00;;
22064;SDS011;11197;53.110;8.468;2023-08-01T10:38:53;3.15;;;1.10;;
22064;SDS011;11197;53.110;8.468;2023-08-01T10:41:27;3.05;;;1.05;;
22064;SDS011;11197;53.110;8.468;2023-08-01T10:44:13;2.97;;;1.08;;
22064;SDS011;11197;53.110;8.468;2023-08-01T10:52:20;2.65;;;0.90;;
22064;SDS011;11197;53.110;8.468;2023-08-01T10:54:59;4.20;;;0.88;;
22064;SDS011;11197;53.110;8.468;2023-08-01T10:57:27;3.38;;;1.30;;
22064;SDS011;11197;53.110;8.468;2023-08-01T10:59:58;1.77;;;0.77;;
22064;SDS011;11197;53.110;8.468;2023-08-01T11:02:25;2.20;;;1.00;;
22064;SDS011;11197;53.110;8.468;2023-08-01T11:04:55;3.30;;;0.90;;
22064;SDS011;11197;53.110;8.468;2023-08-01T11:07:21;2.50;;;0.90;;
22064;SDS011;11197;53.110;8.468;2023-08-01T11:09:47;2.28;;;0.80;;
22064;SDS011;11197;53.110;8.468;2023-08-01T11:12:13;2.90;;;0.80;;
22064;SDS011;11197;53.110;8.468;2023-08-01T11:14:39;2.53;;;0.98;;
22064;SDS011;11197;53.110;8.468;2023-08-01T11:17:04;2.60;;;0.90;;
22064;SDS011;11197;53.110;8.468;2023-08-01T11:19:30;1.98;;;0.90;;
22064;SDS011;11197;53.110;8.468;2023-08-01T11:21:56;4.35;;;1.25;;
22064;SDS011;11197;53.110;8.468;2023-08-01T11:24:23;2.35;;;0.90;;
22064;SDS011;11197;53.110;8.468;2023-08-01T11:26:50;2.95;;;0.90;;
22064;SDS011;11197;53.110;8.468;2023-08-01T11:29:18;3.28;;;0.93;;
22064;SDS011;11197;53.110;8.468;2023-08-01T11:31:58;5.65;;;1.10;;
22064;SDS011;11197;53.110;8.468;2023-08-01T11:34:25;5.07;;;1.00;;
22064;SDS011;11197;53.110;8.468;2023-08-01T11:36:51;2.75;;;1.02;;
22064;SDS011;11197;53.110;8.468;2023-08-01T11:39:17;2.33;;;0.75;;
22064;SDS011;11197;53.110;8.468;2023-08-01T11:41:44;4.28;;;0.95;;
22064;SDS011;11197;53.110;8.468;2023-08-01T11:44:10;3.35;;;0.95;;
22064;SDS011;11197;53.110;8.468;2023-08-01T11:46:37;3.08;;;1.08;;
22064;SDS011;11197;53.110;8.468;2023-08-01T11:49:04;2.97;;;0.90;;
22064;SDS011;11197;53.110;8.468;2023-08-01T11:51:37;2.38;;;0.90;;
22064;SDS011;11197;53.110;8.468;2023-08-01T11:54:04;2.70;;;0.90;;
22064;SDS011;11197;53.110;8.468;2023-08-01T11:56:31;3.90;;;0.90;;
22064;SDS011;11197;53.110;8.468;2023-08-01T11:58:59;3.00;;;1.00;;
22064;SDS011;11197;53.110;8.468;2023-08-01T12:01:37;3.80;;;0.88;;
22064;SDS011;11197;53.110;8.468;2023-08-01T12:04:04;3.10;;;0.93;;
22064;SDS011;11197;53.110;8.468;2023-08-01T12:06:31;4.38;;;1.10;;
22064;SDS011;11197;53.110;8.468;2023-08-01T12:09:06;2.72;;;0.85;;
22064;SDS011;11197;53.110;8.468;2023-08-01T12:11:39;2.50;;;0.85;;
22064;SDS011;11197;53.110;8.468;2023-08-01T12:14:14;2.75;;;0.90;;
22064;SDS011;11197;53.110;8.468;2023-08-01T12:16:41;4.53;;;0.90;;
22064;SDS011;11197;53.110;8.468;2023-08-01T12:19:10;3.22;;;1.00;;
22064;SDS011;11197;53.110;8.468;2023-08-01T12:21:36;3.10;;;1.02;;
22064;SDS011;11197;53.110;8.468;2023-08-01T12:24:02;3.45;;;1.10;;
22064;SDS011;11197;53.110;8.468;2023-08-01T12:26:28;2.78;;;1.10;;
22064;SDS011;11197;53.110;8.468;2023-08-01T12:28:54;2.63;;;1.00;;
22064;SDS011;11197;53.110;8.468;2023-08-01T12:31:21;3.75;;;0.90;;
22064;SDS011;11197;53.110;8.468;2023-08-01T12:33:47;2.13;;;1.02;;
22064;SDS011;11197;53.110;8.468;2023-08-01T12:36:13;2.67;;;1.08;;
22064;SDS011;11197;53.110;8.468;2023-08-01T12:38:40;3.97;;;1.10;;
22064;SDS011;11197;53.110;8.468;2023-08-01T12:41:06;2.25;;;1.00;;
22064;SDS011;11197;53.110;8.468;2023-08-01T12:43:32;3.13;;;1.10;;
22064;SDS011;11197;53.110;8.468;2023-08-01T12:45:58;4.82;;;1.08;;
22064;SDS011;11197;53.110;8.468;2023-08-01T12:48:27;2.15;;;0.88;;
22064;SDS011;11197;53.110;8.468;2023-08-01T12:50:53;5.15;;;1.20;;
22064;SDS011;11197;53.110;8.468;2023-08-01T12:53:21;3.38;;;1.05;;
22064;SDS011;11197;53.110;8.468;2023-08-01T12:55:50;2.17;;;1.00;;
22064;SDS011;11197;53.110;8.468;2023-08-01T12:58:16;2.30;;;1.00;;
22064;SDS011;11197;53.110;8.468;2023-08-01T13:00:42;3.38;;;1.10;;
22064;SDS011;11197;53.110;8.468;2023-08-01T13:03:09;3.17;;;1.10;;
22064;SDS011;11197;53.110;8.468;2023-08-01T13:05:38;2.53;;;0.85;;
22064;SDS011;11197;53.110;8.468;2023-08-01T13:08:07;4.22;;;1.02;;
22064;SDS011;11197;53.110;8.468;2023-08-01T13:10:35;2.90;;;1.00;;
22064;SDS011;11197;53.110;8.468;2023-08-01T13:13:02;2.75;;;1.00;;
22064;SDS011;11197;53.110;8.468;2023-08-01T13:15:28;6.03;;;1.10;;
22064;SDS011;11197;53.110;8.468;2023-08-01T13:17:55;3.45;;;1.00;;
22064;SDS011;11197;53.110;8.468;2023-08-01T13:20:22;1.83;;;1.00;;
22064;SDS011;11197;53.110;8.468;2023-08-01T13:22:51;4.72;;;1.20;;
22064;SDS011;11197;53.110;8.468;2023-08-01T13:25:23;4.97;;;1.20;;
22064;SDS011;11197;53.110;8.468;2023-08-01T13:27:52;3.00;;;1.10;;
22064;SDS011;11197;53.110;8.468;2023-08-01T13:30:20;5.60;;;1.25;;
22064;SDS011;11197;53.110;8.468;2023-08-01T13:32:46;3.58;;;1.10;;
22064;SDS011;11197;53.110;8.468;2023-08-01T13:35:13;5.20;;;1.08;;
22064;SDS011;11197;53.110;8.468;2023-08-01T13:37:39;3.45;;;1.10;;
22064;SDS011;11197;53.110;8.468;2023-08-01T13:40:05;3.35;;;1.00;;
22064;SDS011;11197;53.110;8.468;2023-08-01T13:42:31;2.92;;;0.75;;
22064;SDS011;11197;53.110;8.468;2023-08-01T13:44:58;4.53;;;0.93;;
22064;SDS011;11197;53.110;8.468;2023-08-01T13:47:24;3.75;;;1.00;;
22064;SDS011;11197;53.110;8.468;2023-08-01T13:49:50;4.03;;;1.17;;
22064;SDS011;11197;53.110;8.468;2023-08-01T13:52:16;4.07;;;1.05;;
22064;SDS011;11197;53.110;8.468;2023-08-01T13:54:43;3.97;;;0.90;;
22064;SDS011;11197;53.110;8.468;2023-08-01T13:57:09;6.15;;;1.30;;
22064;SDS011;11197;53.110;8.468;2023-08-01T13:59:36;2.58;;;1.02;;
22064;SDS011;11197;53.110;8.468;2023-08-01T14:02:02;4.72;;;1.00;;
22064;SDS011;11197;53.110;8.468;2023-08-01T14:04:34;4.15;;;1.10;;
22064;SDS011;11197;53.110;8.468;2023-08-01T14:07:14;3.17;;;0.95;;
22064;SDS011;11197;53.110;8.468;2023-08-01T14:09:40;4.40;;;1.10;;
22064;SDS011;11197;53.110;8.468;2023-08-01T14:12:07;3.38;;;1.00;;
22064;SDS011;11197;53.110;8.468;2023-08-01T14:14:33;4.28;;;0.80;;
22064;SDS011;11197;53.110;8.468;2023-08-01T14:17:01;2.97;;;1.00;;
22064;SDS011;11197;53.110;8.468;2023-08-01T14:19:29;6.15;;;1.10;;
22064;SDS011;11197;53.110;8.468;2023-08-01T14:21:58;5.85;;;1.40;;
22064;SDS011;11197;53.110;8.468;2023-08-01T14:24:23;2.85;;;1.05;;
22064;SDS011;11197;53.110;8.468;2023-08-01T14:26:49;4.97;;;1.13;;
22064;SDS011;11197;53.110;8.468;2023-08-01T14:29:16;4.00;;;0.98;;
22064;SDS011;11197;53.110;8.468;2023-08-01T14:31:48;3.88;;;1.10;;
22064;SDS011;11197;53.110;8.468;2023-08-01T14:34:16;2.95;;;1.10;;
22064;SDS011;11197;53.110;8.468;2023-08-01T14:36:42;4.63;;;1.30;;
22064;SDS011;11197;53.110;8.468;2023-08-01T14:39:08;3.95;;;1.08;;
22064;SDS011;11197;53.110;8.468;2023-08-01T14:41:34;5.03;;;1.30;;
22064;SDS011;11197;53.110;8.468;2023-08-01T14:43:59;5.00;;;1.40;;
22064;SDS011;11197;53.110;8.468;2023-08-01T14:46:25;4.07;;;1.30;;
22064;SDS011;11197;53.110;8.468;2023-08-01T14:48:53;4.95;;;1.20;;
22064;SDS011;11197;53.110;8.468;2023-08-01T14:51:22;3.63;;;1.30;;